F/V War Raog III — FONQ — position and weather

sailwx.info

Track history (hours):
 
Tides and Currents Weather Stations Pressure Air Temp Water Temp Dewpoint Dewpoint Depression Visibility Wind Speed Wind Dir Waves Ship Positions

F/V War Raog III

Last reported at 2017-Sep-22 02:00 UTC. Time now 2017-Sep-22 10:16 UTC.
Position N 48°06' W 004°19'.

Length 16 m.

Type: Fishing. MMSI: 227144200.

Date/timePositionNaut miles runAvg speedWind from/ knotsBaromVisibWave heightAir tempDewpointWater temp
2017-Sep-22 02:00N 48°06' W 004°19'0 0.0
2017-Sep-22 01:31N 48°06' W 004°19'0 0.0
2017-Sep-22 01:00N 48°06' W 004°19'3 5.2
2017-Sep-22 00:30N 48°07' W 004°23'510.1
2017-Sep-22 00:00N 48°09' W 004°30'1 2.0
2017-Sep-21 23:30N 48°09' W 004°32'0 0.6
2017-Sep-21 23:00N 48°09' W 004°31'1 2.0
2017-Sep-21 22:30N 48°08' W 004°32'0 0.2
2017-Sep-21 22:00N 48°08' W 004°32'1 1.3
2017-Sep-21 21:30N 48°08' W 004°33'0 0.3
2017-Sep-21 21:00N 48°08' W 004°33'2 3.1
2017-Sep-21 20:30N 48°08' W 004°35'3 6.5
2017-Sep-21 20:00N 48°09' W 004°40'2 4.9
2017-Sep-21 19:30N 48°11' W 004°42'0 0.6
2017-Sep-21 19:00N 48°11' W 004°42'1 1.3
2017-Sep-21 18:30N 48°12' W 004°43'1 1.1
2017-Sep-21 18:00N 48°12' W 004°42'510.2
2017-Sep-21 17:30N 48°10' W 004°35'510.7
2017-Sep-21 17:00N 48°08' W 004°28'2 4.6
2017-Sep-21 16:30N 48°07' W 004°24'4 7.2
2017-Sep-21 16:00N 48°06' W 004°19'0 0.0
2017-Sep-21 14:24N 48°06' W 004°19'0 0.0
2017-Sep-21 14:00N 48°06' W 004°19'0 0.0
2017-Sep-21 04:07N 48°06' W 004°19'0 0.0
2017-Sep-21 04:00N 48°06' W 004°19'0 0.1
2017-Sep-21 03:30N 48°06' W 004°19'0 0.0
2017-Sep-21 03:00N 48°06' W 004°19'3 5.5
2017-Sep-21 02:30N 48°08' W 004°21'2 4.0
2017-Sep-21 02:00N 48°10' W 004°22'0 0.5
2017-Sep-21 01:30N 48°10' W 004°22'0 0.3
2017-Sep-21 01:00N 48°10' W 004°23'2 3.4
2017-Sep-21 00:30N 48°10' W 004°25'1 1.8
2017-Sep-21 00:00N 48°09' W 004°26'3 6.2
2017-Sep-20 23:30N 48°08' W 004°30'4 8.4
2017-Sep-20 23:00N 48°05' W 004°36'510.7
2017-Sep-20 22:30N 48°04' W 004°44'5 9.3
2017-Sep-20 22:00N 47°60' W 004°43'910.5
2017-Sep-20 21:10N 47°53' W 004°35'210.1
2017-Sep-20 21:00N 47°51' W 004°37'6 9.2
2017-Sep-20 20:23N 47°46' W 004°40'9 4.6
2017-Sep-20 18:26N 47°51' W 004°28'4 0.3
2017-Sep-20 06:12N 47°49' W 004°23'0 0.1
2017-Sep-20 02:58N 47°49' W 004°23'0 0.2
2017-Sep-20 01:58N 47°49' W 004°23'810.1
2017-Sep-20 01:13N 47°48' W 004°34'310.3
2017-Sep-20 00:57N 47°47' W 004°38'510.4
2017-Sep-20 00:30N 47°46' W 004°45'1 1.3
2017-Sep-19 23:52N 47°46' W 004°46'1 1.9
2017-Sep-19 23:15N 47°47' W 004°46'0 1.0
2017-Sep-19 22:50N 47°47' W 004°45'0 1.0
2017-Sep-19 22:29N 47°47' W 004°45'4 9.2
2017-Sep-19 22:00N 47°52' W 004°44'5 9.5
2017-Sep-19 21:30N 47°57' W 004°45'1 1.8
2017-Sep-19 20:59N 47°56' W 004°44'2 3.8
2017-Sep-19 20:29N 47°55' W 004°42'2 3.2
2017-Sep-19 19:58N 47°55' W 004°40'2 5.1
2017-Sep-19 19:29N 47°57' W 004°42'1 1.3
2017-Sep-19 19:01N 47°57' W 004°43'2 4.2
2017-Sep-19 18:31N 47°59' W 004°45'510.9
2017-Sep-19 18:01N 48°04' W 004°44'510.8
2017-Sep-19 17:30N 48°05' W 004°36'510.7
2017-Sep-19 17:01N 48°06' W 004°28'510.2
2017-Sep-19 16:30N 48°07' W 004°21'1 0.1
2017-Sep-19 04:33N 48°06' W 004°19'0 0.4
2017-Sep-19 04:30N 48°06' W 004°19'0 0.0
2017-Sep-19 04:01N 48°06' W 004°19'0 0.0
2017-Sep-19 03:30N 48°06' W 004°19'0 0.0
2017-Sep-19 03:01N 48°06' W 004°19'0 0.0
2017-Sep-19 02:30N 48°06' W 004°19'4 7.1
2017-Sep-19 02:00N 48°09' W 004°23'5 9.9
2017-Sep-19 01:31N 48°08' W 004°30'1 2.3
2017-Sep-19 01:00N 48°08' W 004°32'1 1.8
2017-Sep-19 00:30N 48°08' W 004°31'1 1.1
2017-Sep-19 00:01N 48°08' W 004°31'1 2.0
2017-Sep-18 23:29N 48°08' W 004°33'0 1.1
2017-Sep-18 23:01N 48°08' W 004°33'0 0.3
2017-Sep-18 22:31N 48°08' W 004°33'4 8.2
2017-Sep-18 22:01N 48°09' W 004°39'510.0
2017-Sep-18 21:31N 48°12' W 004°46'5 9.9
2017-Sep-18 21:00N 48°15' W 004°51'2 3.1
2017-Sep-18 20:30N 48°17' W 004°51'0 0.6
2017-Sep-18 20:01N 48°17' W 004°51'1 1.9
2017-Sep-18 19:31N 48°18' W 004°51'1 1.9
2017-Sep-18 19:01N 48°17' W 004°50'4 8.7
2017-Sep-18 18:31N 48°13' W 004°47'4 7.5
2017-Sep-18 18:01N 48°10' W 004°44'510.0
2017-Sep-18 17:30N 48°09' W 004°36'510.2
2017-Sep-18 17:00N 48°08' W 004°29'5 9.8
2017-Sep-18 16:31N 48°07' W 004°22'2 3.5
2017-Sep-18 16:01N 48°06' W 004°19'0 0.0
2017-Sep-18 15:30N 48°06' W 004°19'0 0.0
2017-Sep-18 15:00N 48°06' W 004°19'0 0.0
2017-Sep-18 14:30N 48°06' W 004°19'0 0.0
2017-Sep-18 14:01N 48°06' W 004°19'0 0.0
2017-Sep-18 03:58N 48°06' W 004°19'0 0.2
2017-Sep-18 03:30N 48°06' W 004°20'0 0.0
2017-Sep-18 03:00N 48°06' W 004°20'3 6.4
2017-Sep-18 02:30N 48°08' W 004°23'510.1
2017-Sep-18 02:00N 48°10' W 004°30'1 1.3
2017-Sep-18 01:30N 48°10' W 004°31'0 0.5
2017-Sep-18 01:00N 48°10' W 004°30'5 9.0
2017-Sep-18 00:30N 48°09' W 004°24'2 3.1
2017-Sep-18 00:00N 48°09' W 004°26'5 9.9
2017-Sep-17 23:30N 48°08' W 004°33'1 1.2
2017-Sep-17 23:00N 48°08' W 004°34'3 6.9
2017-Sep-17 22:30N 48°09' W 004°39'5 9.2
2017-Sep-17 22:00N 48°10' W 004°46'5 9.5
2017-Sep-17 21:31N 48°12' W 004°52'3 6.1
2017-Sep-17 21:00N 48°12' W 004°57'4 7.7
2017-Sep-17 20:30N 48°13' W 004°51'4 7.5
2017-Sep-17 20:00N 48°17' W 004°51'0 0.2
2017-Sep-17 19:30N 48°17' W 004°50'1 2.1
2017-Sep-17 19:00N 48°16' W 004°51'5 9.3
2017-Sep-17 18:30N 48°12' W 004°47'5 9.9
2017-Sep-17 18:00N 48°10' W 004°40'5 9.8
2017-Sep-17 17:30N 48°08' W 004°34'510.2
2017-Sep-17 17:00N 48°08' W 004°26'5 9.5
2017-Sep-17 16:30N 48°06' W 004°19'  
2017-Sep-14 23:06N 48°06' W 004°19'0 0.0
2017-Sep-14 23:00N 48°06' W 004°19'0 0.0
2017-Sep-14 22:30N 48°06' W 004°19'0 0.0
2017-Sep-14 22:00N 48°06' W 004°19'0 0.0
2017-Sep-14 21:30N 48°06' W 004°19'4 7.2
2017-Sep-14 21:00N 48°09' W 004°21'4 8.4
2017-Sep-14 20:30N 48°11' W 004°26'2 4.7
2017-Sep-14 20:00N 48°09' W 004°28'4 8.3
2017-Sep-14 19:30N 48°08' W 004°34'510.1
2017-Sep-14 19:00N 48°09' W 004°42'1 1.9
2017-Sep-14 18:30N 48°09' W 004°41'5 9.1
2017-Sep-14 18:00N 48°08' W 004°34'5 9.2
2017-Sep-14 17:30N 48°10' W 004°28'3 5.5
2017-Sep-14 17:00N 48°11' W 004°24'5 9.8
2017-Sep-14 16:31N 48°07' W 004°20'2 3.0
2017-Sep-14 16:00N 48°06' W 004°19'  
Track history (hours):
 
Tides and Currents Weather Stations Pressure Air Temp Water Temp Dewpoint Dewpoint Depression Visibility Wind Speed Wind Dir Waves Ship Positions

F/V War Raog III

Last reported at 2017-Sep-22 02:00 UTC. Time now 2017-Sep-22 10:16 UTC.
Position N 48°06' W 004°19'.

Length 16 m.

Type: Fishing. MMSI: 227144200.

Date/timePositionNaut miles runAvg speedWind from/ knotsBaromVisibWave heightAir tempDewpointWater temp
2017-Sep-22 02:00N 48°06' W 004°19'0 0.0
2017-Sep-22 01:31N 48°06' W 004°19'0 0.0
2017-Sep-22 01:00N 48°06' W 004°19'3 5.2
2017-Sep-22 00:30N 48°07' W 004°23'510.1
2017-Sep-22 00:00N 48°09' W 004°30'1 2.0
2017-Sep-21 23:30N 48°09' W 004°32'0 0.6
2017-Sep-21 23:00N 48°09' W 004°31'1 2.0
2017-Sep-21 22:30N 48°08' W 004°32'0 0.2
2017-Sep-21 22:00N 48°08' W 004°32'1 1.3
2017-Sep-21 21:30N 48°08' W 004°33'0 0.3
2017-Sep-21 21:00N 48°08' W 004°33'2 3.1
2017-Sep-21 20:30N 48°08' W 004°35'3 6.5
2017-Sep-21 20:00N 48°09' W 004°40'2 4.9
2017-Sep-21 19:30N 48°11' W 004°42'0 0.6
2017-Sep-21 19:00N 48°11' W 004°42'1 1.3
2017-Sep-21 18:30N 48°12' W 004°43'1 1.1
2017-Sep-21 18:00N 48°12' W 004°42'510.2
2017-Sep-21 17:30N 48°10' W 004°35'510.7
2017-Sep-21 17:00N 48°08' W 004°28'2 4.6
2017-Sep-21 16:30N 48°07' W 004°24'4 7.2
2017-Sep-21 16:00N 48°06' W 004°19'0 0.0
2017-Sep-21 14:24N 48°06' W 004°19'0 0.0
2017-Sep-21 14:00N 48°06' W 004°19'0 0.0
2017-Sep-21 04:07N 48°06' W 004°19'0 0.0
2017-Sep-21 04:00N 48°06' W 004°19'0 0.1
2017-Sep-21 03:30N 48°06' W 004°19'0 0.0
2017-Sep-21 03:00N 48°06' W 004°19'3 5.5
2017-Sep-21 02:30N 48°08' W 004°21'2 4.0
2017-Sep-21 02:00N 48°10' W 004°22'0 0.5
2017-Sep-21 01:30N 48°10' W 004°22'0 0.3
2017-Sep-21 01:00N 48°10' W 004°23'2 3.4
2017-Sep-21 00:30N 48°10' W 004°25'1 1.8
2017-Sep-21 00:00N 48°09' W 004°26'3 6.2
2017-Sep-20 23:30N 48°08' W 004°30'4 8.4
2017-Sep-20 23:00N 48°05' W 004°36'510.7
2017-Sep-20 22:30N 48°04' W 004°44'5 9.3
2017-Sep-20 22:00N 47°60' W 004°43'910.5
2017-Sep-20 21:10N 47°53' W 004°35'210.1
2017-Sep-20 21:00N 47°51' W 004°37'6 9.2
2017-Sep-20 20:23N 47°46' W 004°40'9 4.6
2017-Sep-20 18:26N 47°51' W 004°28'4 0.3
2017-Sep-20 06:12N 47°49' W 004°23'0 0.1
2017-Sep-20 02:58N 47°49' W 004°23'0 0.2
2017-Sep-20 01:58N 47°49' W 004°23'810.1
2017-Sep-20 01:13N 47°48' W 004°34'310.3
2017-Sep-20 00:57N 47°47' W 004°38'510.4
2017-Sep-20 00:30N 47°46' W 004°45'1 1.3
2017-Sep-19 23:52N 47°46' W 004°46'1 1.9
2017-Sep-19 23:15N 47°47' W 004°46'0 1.0
2017-Sep-19 22:50N 47°47' W 004°45'0 1.0
2017-Sep-19 22:29N 47°47' W 004°45'4 9.2
2017-Sep-19 22:00N 47°52' W 004°44'5 9.5
2017-Sep-19 21:30N 47°57' W 004°45'1 1.8
2017-Sep-19 20:59N 47°56' W 004°44'2 3.8
2017-Sep-19 20:29N 47°55' W 004°42'2 3.2
2017-Sep-19 19:58N 47°55' W 004°40'2 5.1
2017-Sep-19 19:29N 47°57' W 004°42'1 1.3
2017-Sep-19 19:01N 47°57' W 004°43'2 4.2
2017-Sep-19 18:31N 47°59' W 004°45'510.9
2017-Sep-19 18:01N 48°04' W 004°44'510.8
2017-Sep-19 17:30N 48°05' W 004°36'510.7
2017-Sep-19 17:01N 48°06' W 004°28'510.2
2017-Sep-19 16:30N 48°07' W 004°21'1 0.1
2017-Sep-19 04:33N 48°06' W 004°19'0 0.4
2017-Sep-19 04:30N 48°06' W 004°19'0 0.0
2017-Sep-19 04:01N 48°06' W 004°19'0 0.0
2017-Sep-19 03:30N 48°06' W 004°19'0 0.0
2017-Sep-19 03:01N 48°06' W 004°19'0 0.0
2017-Sep-19 02:30N 48°06' W 004°19'4 7.1
2017-Sep-19 02:00N 48°09' W 004°23'5 9.9
2017-Sep-19 01:31N 48°08' W 004°30'1 2.3
2017-Sep-19 01:00N 48°08' W 004°32'1 1.8
2017-Sep-19 00:30N 48°08' W 004°31'1 1.1
2017-Sep-19 00:01N 48°08' W 004°31'1 2.0
2017-Sep-18 23:29N 48°08' W 004°33'0 1.1
2017-Sep-18 23:01N 48°08' W 004°33'0 0.3
2017-Sep-18 22:31N 48°08' W 004°33'4 8.2
2017-Sep-18 22:01N 48°09' W 004°39'510.0
2017-Sep-18 21:31N 48°12' W 004°46'5 9.9
2017-Sep-18 21:00N 48°15' W 004°51'2 3.1
2017-Sep-18 20:30N 48°17' W 004°51'0 0.6
2017-Sep-18 20:01N 48°17' W 004°51'1 1.9
2017-Sep-18 19:31N 48°18' W 004°51'1 1.9
2017-Sep-18 19:01N 48°17' W 004°50'4 8.7
2017-Sep-18 18:31N 48°13' W 004°47'4 7.5
2017-Sep-18 18:01N 48°10' W 004°44'510.0
2017-Sep-18 17:30N 48°09' W 004°36'510.2
2017-Sep-18 17:00N 48°08' W 004°29'5 9.8
2017-Sep-18 16:31N 48°07' W 004°22'2 3.5
2017-Sep-18 16:01N 48°06' W 004°19'0 0.0
2017-Sep-18 15:30N 48°06' W 004°19'0 0.0
2017-Sep-18 15:00N 48°06' W 004°19'0 0.0
2017-Sep-18 14:30N 48°06' W 004°19'0 0.0
2017-Sep-18 14:01N 48°06' W 004°19'0 0.0
2017-Sep-18 03:58N 48°06' W 004°19'0 0.2
2017-Sep-18 03:30N 48°06' W 004°20'0 0.0
2017-Sep-18 03:00N 48°06' W 004°20'3 6.4
2017-Sep-18 02:30N 48°08' W 004°23'510.1
2017-Sep-18 02:00N 48°10' W 004°30'1 1.3
2017-Sep-18 01:30N 48°10' W 004°31'0 0.5
2017-Sep-18 01:00N 48°10' W 004°30'5 9.0
2017-Sep-18 00:30N 48°09' W 004°24'2 3.1
2017-Sep-18 00:00N 48°09' W 004°26'5 9.9
2017-Sep-17 23:30N 48°08' W 004°33'1 1.2
2017-Sep-17 23:00N 48°08' W 004°34'3 6.9
2017-Sep-17 22:30N 48°09' W 004°39'5 9.2
2017-Sep-17 22:00N 48°10' W 004°46'5 9.5
2017-Sep-17 21:31N 48°12' W 004°52'3 6.1
2017-Sep-17 21:00N 48°12' W 004°57'4 7.7
2017-Sep-17 20:30N 48°13' W 004°51'4 7.5
2017-Sep-17 20:00N 48°17' W 004°51'0 0.2
2017-Sep-17 19:30N 48°17' W 004°50'1 2.1
2017-Sep-17 19:00N 48°16' W 004°51'5 9.3
2017-Sep-17 18:30N 48°12' W 004°47'5 9.9
2017-Sep-17 18:00N 48°10' W 004°40'5 9.8
2017-Sep-17 17:30N 48°08' W 004°34'510.2
2017-Sep-17 17:00N 48°08' W 004°26'5 9.5
2017-Sep-17 16:30N 48°06' W 004°19'  
2017-Sep-14 23:06N 48°06' W 004°19'0 0.0
2017-Sep-14 23:00N 48°06' W 004°19'0 0.0
2017-Sep-14 22:30N 48°06' W 004°19'0 0.0
2017-Sep-14 22:00N 48°06' W 004°19'0 0.0
2017-Sep-14 21:30N 48°06' W 004°19'4 7.2
2017-Sep-14 21:00N 48°09' W 004°21'4 8.4
2017-Sep-14 20:30N 48°11' W 004°26'2 4.7
2017-Sep-14 20:00N 48°09' W 004°28'4 8.3
2017-Sep-14 19:30N 48°08' W 004°34'510.1
2017-Sep-14 19:00N 48°09' W 004°42'1 1.9
2017-Sep-14 18:30N 48°09' W 004°41'5 9.1
2017-Sep-14 18:00N 48°08' W 004°34'5 9.2
2017-Sep-14 17:30N 48°10' W 004°28'3 5.5
2017-Sep-14 17:00N 48°11' W 004°24'5 9.8
2017-Sep-14 16:31N 48°07' W 004°20'2 3.0
2017-Sep-14 16:00N 48°06' W 004°19'  

Dump ship's entire track history